This is the latest recevied weather packets stored in our database for station/object K5MGY. If no packets are shown the sender has not sent any weather packets the latest 10 day(s).
| Time | Temp. | Humidity | Pressure | Rain* | Wind** | Luminosity | Snow |
|---|---|---|---|---|---|---|---|
| 1778099256 | 16.67° C | 73% | 1038.3 hPa | 0 mm | - | 89 W/m² | - |
| 1778098953 | 16.67° C | 72% | 1038.4 hPa | 0 mm | - | 113 W/m² | - |
| 1778098650 | 16.67° C | 74% | 1038.4 hPa | 0 mm | - | 123 W/m² | - |
| 1778098346 | 16.67° C | 73% | 1038.3 hPa | 0 mm | - | 164 W/m² | - |
| 1778098043 | 16.11° C | 76% | 1038.6 hPa | 0 mm | - | 261 W/m² | - |
| 1778097740 | 16.11° C | 74% | 1038.7 hPa | 0 mm | - | 216 W/m² | - |
| 1778097437 | 15.56° C | 77% | 1038.6 hPa | 0 mm | - | 257 W/m² | - |
| 1778097133 | 15.56° C | 75% | 1038.7 hPa | 0 mm | - | 109 W/m² | - |
| 1778096830 | 15.56° C | 75% | 1038.7 hPa | 0 mm | - | 88 W/m² | - |
| 1778096527 | 15.56° C | 76% | 1038.7 hPa | 0 mm | - | 96 W/m² | - |
| 1778096225 | 16.11° C | 74% | 1038.9 hPa | 0 mm | - | 95 W/m² | - |
| 1778095922 | 16.11° C | 75% | 1038.4 hPa | 0 mm | - | 124 W/m² | - |
| 1778095618 | 15.56° C | 76% | 1038.8 hPa | 0 mm | - | 148 W/m² | - |
| 1778095314 | 15.56° C | 77% | 1038.9 hPa | 0 mm | - | 198 W/m² | - |
| 1778095012 | 15° C | 78% | 1039.2 hPa | 0 mm | - | 163 W/m² | - |
| 1778094707 | 15° C | 79% | 1038.9 hPa | 0 mm | - | 92 W/m² | - |
| 1778094405 | 15° C | 79% | 1039.2 hPa | 0 mm | - | 92 W/m² | - |
| 1778094101 | 14.44° C | 80% | 1039.3 hPa | 0 mm | - | 65 W/m² | - |
| 1778093799 | 14.44° C | 79% | 1039.3 hPa | 0 mm | - | 47 W/m² | - |
| 1778093494 | 14.44° C | 79% | 1039.3 hPa | 0 mm | - | 42 W/m² | - |
| 1778093192 | 14.44° C | 80% | 1038.9 hPa | 0 mm | - | 55 W/m² | - |
| 1778092889 | 14.44° C | 80% | 1039.1 hPa | 0 mm | - | 79 W/m² | - |
| 1778092586 | 14.44° C | 79% | 1039.3 hPa | 0 mm | - | 107 W/m² | - |
| 1778092282 | 14.44° C | 79% | 1039.4 hPa | 0 mm | - | 64 W/m² | - |
| 1778091980 | 15° C | 79% | 1038.8 hPa | 0 mm | - | 67 W/m² | - |
* Rain latest hour (hover to see other rain measurements)
** Current wind speed in m/s (hover to see current wind gust speed)